Time;durP1;ratioP1;P1;durP2;ratioP2;P2;SDS_P1;SDS_P2;PMS_P1;PMS_P2;Temp;Humidity;BMP_temperature;BMP_pressure;BME280_temperature;BME280_humidity;BME280_pressure;Samples;Min_cycle;Max_cycle;Signal;HPM_P1;HPM_P2
2022/04/08 00:01:27;;;;;;;4.72;1.02;;;;;;;;;;5094600;28;20048;-74
2022/04/08 00:03:53;;;;;;;10.57;0.98;;;;;;;;;;5088443;28;20089;-75
2022/04/08 00:06:20;;;;;;;12.00;2.95;;;;;;;;;;5058904;28;20173;-77
2022/04/08 00:08:46;;;;;;;11.15;0.98;;;;;;;;;;5085182;28;20043;-72
2022/04/08 00:11:12;;;;;;;4.45;1.02;;;;;;;;;;5075199;28;20424;-70
2022/04/08 00:13:38;;;;;;;4.50;0.47;;;;;;;;;;5075343;28;20040;-68
2022/04/08 00:16:05;;;;;;;6.25;0.95;;;;;;;;;;5057713;28;20036;-69
2022/04/08 00:18:31;;;;;;;9.23;1.85;;;;;;;;;;5058585;28;20054;-69
2022/04/08 00:20:59;;;;;;;5.20;1.85;;;;;;;;;;5094397;28;20527;-69
2022/04/08 00:23:25;;;;;;;4.20;0.60;;;;;;;;;;5094278;28;20055;-69
2022/04/08 00:25:51;;;;;;;6.80;1.52;;;;;;;;;;5095072;28;20056;-69
2022/04/08 00:28:17;;;;;;;4.78;0.60;;;;;;;;;;5095441;28;20108;-68
2022/04/08 00:30:43;;;;;;;5.07;1.42;;;;;;;;;;5092841;28;20056;-71
2022/04/08 00:33:09;;;;;;;5.18;1.15;;;;;;;;;;5093971;28;20052;-70
2022/04/08 00:35:35;;;;;;;6.25;1.00;;;;;;;;;;5094234;28;20036;-71
2022/04/08 00:38:02;;;;;;;6.55;1.00;;;;;;;;;;5089472;28;20037;-69
2022/04/08 00:40:28;;;;;;;7.95;0.80;;;;;;;;;;5090327;28;20044;-70
2022/04/08 00:42:54;;;;;;;9.38;1.33;;;;;;;;;;5093913;28;20079;-69
2022/04/08 00:45:20;;;;;;;5.28;0.95;;;;;;;;;;5077113;28;20102;-69
2022/04/08 00:47:47;;;;;;;10.00;1.52;;;;;;;;;;5074328;28;20036;-68
2022/04/08 00:50:13;;;;;;;7.40;1.80;;;;;;;;;;5087651;28;20063;-68
2022/04/08 00:52:41;;;;;;;5.95;0.82;;;;;;;;;;5086561;28;20549;-68
2022/04/08 00:55:07;;;;;;;6.53;1.20;;;;;;;;;;5054718;28;20041;-68
2022/04/08 00:57:33;;;;;;;12.75;1.25;;;;;;;;;;5069467;28;20567;-69
2022/04/08 01:00:08;;;;;;;9.73;1.60;;;;;;;;;;5080741;28;20052;-69
2022/04/08 01:02:34;;;;;;;13.63;2.15;;;;;;;;;;5056212;28;20040;-70
2022/04/08 01:05:00;;;;;;;11.80;1.23;;;;;;;;;;5074446;28;20052;-70
2022/04/08 01:07:26;;;;;;;13.35;2.22;;;;;;;;;;5073565;28;20056;-70
2022/04/08 01:09:52;;;;;;;10.77;1.90;;;;;;;;;;5084468;28;20044;-72
2022/04/08 01:12:19;;;;;;;10.73;1.60;;;;;;;;;;5093134;28;20603;-72
2022/04/08 01:14:45;;;;;;;13.15;1.35;;;;;;;;;;5082862;28;20127;-73
2022/04/08 01:17:11;;;;;;;11.43;2.03;;;;;;;;;;5087864;28;20048;-73
2022/04/08 01:19:37;;;;;;;13.27;1.42;;;;;;;;;;5093907;28;20102;-73
2022/04/08 01:22:03;;;;;;;11.50;1.27;;;;;;;;;;5089683;28;20040;-72
2022/04/08 01:24:30;;;;;;;14.93;2.00;;;;;;;;;;5085917;28;20055;-73
2022/04/08 01:26:56;;;;;;;16.00;1.98;;;;;;;;;;5093105;28;20044;-72
2022/04/08 01:29:22;;;;;;;15.15;1.83;;;;;;;;;;5090681;28;20064;-73
2022/04/08 01:31:48;;;;;;;13.40;1.83;;;;;;;;;;5092519;28;20054;-73
2022/04/08 01:34:14;;;;;;;18.85;1.92;;;;;;;;;;5080806;28;20036;-74
2022/04/08 01:36:41;;;;;;;14.27;2.03;;;;;;;;;;5075077;28;20044;-73
2022/04/08 01:39:07;;;;;;;6.43;1.20;;;;;;;;;;5084313;28;20047;-74
2022/04/08 01:41:33;;;;;;;14.60;2.92;;;;;;;;;;5074216;28;20408;-74
2022/04/08 01:43:59;;;;;;;10.70;1.88;;;;;;;;;;5093821;28;20052;-74
2022/04/08 01:46:25;;;;;;;10.93;1.80;;;;;;;;;;5092705;28;20428;-75
2022/04/08 01:48:55;;;;;;;13.52;1.42;;;;;;;;;;5072167;28;20511;-75
2022/04/08 01:51:24;;;;;;;14.48;1.50;;;;;;;;;;5073348;28;20084;-76
2022/04/08 01:53:51;;;;;;;8.60;1.23;;;;;;;;;;5072327;28;20137;-75
2022/04/08 01:56:17;;;;;;;12.45;2.30;;;;;;;;;;5078143;28;20044;-76
2022/04/08 01:58:43;;;;;;;17.17;1.45;;;;;;;;;;5091727;28;20434;-76
2022/04/08 02:01:09;;;;;;;22.30;4.05;;;;;;;;;;5076489;28;20063;-76
2022/04/08 02:03:35;;;;;;;9.55;1.50;;;;;;;;;;5070790;28;20093;-75
2022/04/08 02:06:01;;;;;;;13.98;1.98;;;;;;;;;;5075290;28;20048;-76
2022/04/08 02:08:27;;;;;;;11.40;1.73;;;;;;;;;;5085086;28;20064;-76
2022/04/08 02:10:55;;;;;;;17.10;2.05;;;;;;;;;;5084323;28;20075;-75
2022/04/08 02:13:21;;;;;;;16.67;2.20;;;;;;;;;;5092501;28;20054;-75
2022/04/08 02:15:47;;;;;;;15.43;1.92;;;;;;;;;;5092154;28;20044;-75
2022/04/08 02:18:14;;;;;;;10.55;1.27;;;;;;;;;;5076573;28;20040;-75
2022/04/08 02:20:41;;;;;;;9.63;1.80;;;;;;;;;;5072053;28;20049;-75
2022/04/08 02:23:07;;;;;;;6.30;1.13;;;;;;;;;;5072192;28;20044;-76
2022/04/08 02:25:33;;;;;;;8.50;1.95;;;;;;;;;;5083067;28;20100;-75
2022/04/08 02:27:59;;;;;;;7.03;1.17;;;;;;;;;;5090812;28;20488;-75
2022/04/08 02:30:25;;;;;;;4.20;0.80;;;;;;;;;;5071464;28;20052;-76
2022/04/08 02:32:51;;;;;;;7.50;1.30;;;;;;;;;;5070824;28;20284;-75
2022/04/08 02:35:18;;;;;;;8.80;1.48;;;;;;;;;;5071698;28;20051;-76
2022/04/08 02:37:44;;;;;;;9.70;1.30;;;;;;;;;;5088091;28;20048;-76
2022/04/08 02:40:10;;;;;;;8.90;1.08;;;;;;;;;;5092102;28;20044;-75
2022/04/08 02:42:36;;;;;;;10.95;1.40;;;;;;;;;;5092397;28;20036;-76
2022/04/08 02:45:02;;;;;;;12.38;1.80;;;;;;;;;;5074220;28;20398;-75
2022/04/08 02:47:28;;;;;;;11.55;1.67;;;;;;;;;;5073246;28;20043;-75
2022/04/08 02:49:54;;;;;;;10.60;1.52;;;;;;;;;;5065561;28;20047;-76
2022/04/08 02:52:20;;;;;;;11.13;1.70;;;;;;;;;;5084855;28;20055;-76
2022/04/08 02:54:46;;;;;;;8.88;1.73;;;;;;;;;;5072559;28;20044;-76
2022/04/08 02:57:12;;;;;;;12.00;1.98;;;;;;;;;;5071553;28;20131;-75
2022/04/08 02:59:38;;;;;;;10.90;1.92;;;;;;;;;;5087285;28;20044;-75
2022/04/08 03:02:04;;;;;;;20.40;3.38;;;;;;;;;;5072445;28;20056;-74
2022/04/08 03:04:30;;;;;;;11.70;1.83;;;;;;;;;;5054366;28;20041;-70
2022/04/08 03:06:58;;;;;;;11.13;2.35;;;;;;;;;;5071206;28;20095;-68
2022/04/08 03:09:24;;;;;;;3.97;1.60;;;;;;;;;;5084146;28;20059;-68
2022/04/08 03:11:51;;;;;;;14.13;1.40;;;;;;;;;;5091414;28;20059;-67
2022/04/08 03:14:17;;;;;;;6.72;1.17;;;;;;;;;;5092348;28;20059;-67
2022/04/08 03:16:43;;;;;;;11.48;1.35;;;;;;;;;;5088915;28;20044;-68
2022/04/08 03:19:09;;;;;;;7.00;1.55;;;;;;;;;;5082391;28;20040;-68
2022/04/08 03:21:35;;;;;;;4.13;0.98;;;;;;;;;;5090905;28;20480;-68
2022/04/08 03:24:03;;;;;;;6.30;1.23;;;;;;;;;;5091232;28;20392;-69
2022/04/08 03:26:29;;;;;;;11.48;1.70;;;;;;;;;;5090976;28;20066;-68
2022/04/08 03:28:55;;;;;;;12.27;1.60;;;;;;;;;;5084485;28;20044;-69
2022/04/08 03:31:21;;;;;;;8.65;2.15;;;;;;;;;;5070390;28;20078;-69
2022/04/08 03:33:47;;;;;;;12.30;2.33;;;;;;;;;;5072391;28;20051;-69
2022/04/08 03:38:53;;;;;;;10.70;2.33;;;;;;;;;;4930102;22;20433;-70
2022/04/08 03:41:19;;;;;;;17.70;3.40;;;;;;;;;;5091581;28;20050;-71
2022/04/08 03:43:45;;;;;;;10.52;2.50;;;;;;;;;;5112400;28;20517;-71
2022/04/08 03:46:13;;;;;;;12.60;2.30;;;;;;;;;;5112651;28;20070;-73
2022/04/08 03:48:42;;;;;;;13.77;3.20;;;;;;;;;;5072681;28;20164;-72
2022/04/08 03:56:43;;;;;;;5.32;1.23;;;;;;;;;;5105484;28;20087;-73
2022/04/08 03:59:10;;;;;;;8.07;0.70;;;;;;;;;;5086433;28;20545;-72
2022/04/08 04:01:36;;;;;;;4.68;0.75;;;;;;;;;;5078213;28;20048;-71
2022/04/08 04:04:03;;;;;;;16.15;1.90;;;;;;;;;;5080732;28;20044;-73
2022/04/08 04:06:29;;;;;;;5.28;1.15;;;;;;;;;;5095612;28;20048;-73
2022/04/08 04:08:55;;;;;;;5.25;1.52;;;;;;;;;;5114449;28;20043;-72
2022/04/08 04:11:21;;;;;;;7.53;1.15;;;;;;;;;;5096688;28;20462;-71
2022/04/08 04:13:48;;;;;;;4.75;0.93;;;;;;;;;;5096988;28;20404;-70
2022/04/08 04:16:14;;;;;;;9.65;1.13;;;;;;;;;;5096537;28;20422;-71
2022/04/08 04:18:40;;;;;;;5.72;1.00;;;;;;;;;;5102917;28;20051;-71
2022/04/08 04:21:06;;;;;;;9.23;1.85;;;;;;;;;;5094046;28;20484;-73
2022/04/08 04:23:33;;;;;;;5.82;1.30;;;;;;;;;;5077365;28;20052;-73
2022/04/08 04:26:00;;;;;;;11.75;1.25;;;;;;;;;;5094365;28;20052;-73
2022/04/08 04:28:28;;;;;;;12.52;1.73;;;;;;;;;;5094459;28;20094;-74
2022/04/08 04:30:54;;;;;;;13.15;2.20;;;;;;;;;;5094067;28;20043;-73
2022/04/08 04:33:20;;;;;;;14.00;1.73;;;;;;;;;;5067937;28;20051;-73
2022/04/08 04:35:46;;;;;;;8.55;1.67;;;;;;;;;;5085394;28;20419;-74
2022/04/08 04:38:12;;;;;;;10.25;1.92;;;;;;;;;;5094786;28;20060;-74
2022/04/08 04:40:38;;;;;;;10.57;1.77;;;;;;;;;;5096223;28;20043;-73
2022/04/08 04:43:04;;;;;;;5.68;1.80;;;;;;;;;;5078474;28;20403;-73
2022/04/08 04:45:30;;;;;;;12.25;2.25;;;;;;;;;;5059362;28;20044;-73
2022/04/08 04:47:56;;;;;;;9.23;2.20;;;;;;;;;;5084580;28;20052;-73
2022/04/08 04:50:22;;;;;;;11.75;1.38;;;;;;;;;;5096981;28;20040;-73
2022/04/08 04:52:48;;;;;;;4.35;2.53;;;;;;;;;;5075948;28;20048;-72
2022/04/08 04:55:14;;;;;;;4.35;0.95;;;;;;;;;;5040306;28;1018856;-74
2022/04/08 04:57:40;;;;;;;7.35;1.10;;;;;;;;;;5108625;28;20051;-74
2022/04/08 05:00:09;;;;;;;3.28;1.00;;;;;;;;;;5062634;28;20486;-72
2022/04/08 05:02:35;;;;;;;4.63;0.88;;;;;;;;;;5084379;28;20043;-74
2022/04/08 05:05:01;;;;;;;4.57;1.23;;;;;;;;;;5086643;28;20048;-71
2022/04/08 05:07:27;;;;;;;3.30;0.77;;;;;;;;;;5060136;28;20047;-67
2022/04/08 05:09:53;;;;;;;2.55;0.90;;;;;;;;;;5094253;28;20056;-68
2022/04/08 05:12:19;;;;;;;1.75;0.77;;;;;;;;;;5094467;28;20072;-67
2022/04/08 05:14:45;;;;;;;4.50;1.10;;;;;;;;;;5076454;28;20503;-66
2022/04/08 05:17:11;;;;;;;4.47;1.52;;;;;;;;;;5082952;28;20093;-67
2022/04/08 05:19:37;;;;;;;6.03;2.58;;;;;;;;;;5081975;28;20452;-69
2022/04/08 05:22:03;;;;;;;4.38;2.17;;;;;;;;;;5091972;28;20083;-69
2022/04/08 05:24:29;;;;;;;5.45;2.38;;;;;;;;;;5074469;28;20066;-69
2022/04/08 05:26:55;;;;;;;6.22;2.00;;;;;;;;;;5076088;28;20040;-69
2022/04/08 05:29:21;;;;;;;4.93;2.42;;;;;;;;;;5083687;28;20050;-70
2022/04/08 05:31:47;;;;;;;5.05;1.67;;;;;;;;;;5094512;28;20040;-70
2022/04/08 05:34:13;;;;;;;5.43;1.08;;;;;;;;;;5070288;28;20040;-70
2022/04/08 05:36:39;;;;;;;3.65;0.90;;;;;;;;;;5076192;28;20476;-73
2022/04/08 05:39:05;;;;;;;5.07;1.38;;;;;;;;;;5104643;28;20127;-73
2022/04/08 05:41:31;;;;;;;3.35;1.13;;;;;;;;;;5109297;28;20052;-74
2022/04/08 05:43:57;;;;;;;3.92;1.02;;;;;;;;;;5109515;28;20047;-73
2022/04/08 05:46:23;;;;;;;2.88;1.60;;;;;;;;;;5095133;28;20044;-72
2022/04/08 05:48:49;;;;;;;5.05;1.30;;;;;;;;;;5086921;28;20051;-72
2022/04/08 05:51:16;;;;;;;5.68;1.30;;;;;;;;;;5071374;28;20156;-73
2022/04/08 05:53:42;;;;;;;4.22;0.90;;;;;;;;;;5070774;28;20048;-72
2022/04/08 05:56:08;;;;;;;6.80;1.55;;;;;;;;;;5075164;28;20059;-72
2022/04/08 05:58:35;;;;;;;2.92;1.13;;;;;;;;;;5073051;28;20055;-72
2022/04/08 06:01:01;;;;;;;1.20;0.60;;;;;;;;;;5057527;28;20044;-72
2022/04/08 06:03:27;;;;;;;6.75;1.73;;;;;;;;;;5068453;28;20388;-72
2022/04/08 06:05:54;;;;;;;2.20;0.88;;;;;;;;;;5073685;28;20071;-72
2022/04/08 06:08:21;;;;;;;5.35;1.70;;;;;;;;;;5092048;28;20056;-72
2022/04/08 06:10:47;;;;;;;2.72;0.77;;;;;;;;;;5075625;28;20099;-71
2022/04/08 06:13:13;;;;;;;2.53;1.23;;;;;;;;;;5092022;28;20094;-71
2022/04/08 06:15:40;;;;;;;3.97;1.05;;;;;;;;;;5086762;28;20044;-71
2022/04/08 06:18:08;;;;;;;3.65;0.93;;;;;;;;;;5098422;28;20046;-71
2022/04/08 06:20:34;;;;;;;6.68;1.02;;;;;;;;;;5095289;28;20040;-71
2022/04/08 06:23:00;;;;;;;3.17;1.08;;;;;;;;;;5078828;28;20062;-70
2022/04/08 06:25:27;;;;;;;4.85;0.93;;;;;;;;;;5060186;28;20092;-71
2022/04/08 06:28:02;;;;;;;4.20;1.00;;;;;;;;;;5113326;28;20058;-72
2022/04/08 06:30:29;;;;;;;6.97;1.00;;;;;;;;;;5094482;28;20039;-71
2022/04/08 06:32:55;;;;;;;2.78;1.10;;;;;;;;;;5086260;28;20062;-71
2022/04/08 06:35:22;;;;;;;5.55;1.10;;;;;;;;;;5093927;28;20051;-71
2022/04/08 06:37:52;;;;;;;3.78;1.10;;;;;;;;;;5058594;28;20040;-71
2022/04/08 06:40:18;;;;;;;2.53;0.70;;;;;;;;;;5092814;28;20047;-71
2022/04/08 06:42:44;;;;;;;4.15;1.10;;;;;;;;;;5073593;28;20464;-71
2022/04/08 06:45:11;;;;;;;5.97;1.23;;;;;;;;;;5085769;28;20047;-71
2022/04/08 06:47:47;;;;;;;12.10;2.00;;;;;;;;;;5089344;28;20097;-70
2022/04/08 06:50:14;;;;;;;8.10;1.30;;;;;;;;;;5073007;28;20058;-70
2022/04/08 06:52:40;;;;;;;8.07;1.60;;;;;;;;;;5044703;28;20130;-70
2022/04/08 06:55:07;;;;;;;6.53;2.55;;;;;;;;;;5074665;28;20093;-70
2022/04/08 06:57:33;;;;;;;6.18;1.40;;;;;;;;;;5075798;28;20060;-69
2022/04/08 07:00:00;;;;;;;10.38;1.67;;;;;;;;;;5097319;28;20052;-70
2022/04/08 07:02:26;;;;;;;10.93;2.80;;;;;;;;;;5080398;28;20050;-70
2022/04/08 07:04:53;;;;;;;9.82;2.65;;;;;;;;;;5092563;28;20123;-71
2022/04/08 07:07:19;;;;;;;11.30;2.50;;;;;;;;;;5092951;28;20051;-69
2022/04/08 07:09:45;;;;;;;14.90;2.33;;;;;;;;;;5076997;28;20044;-70
2022/04/08 07:12:11;;;;;;;16.35;3.70;;;;;;;;;;5074453;28;20044;-68
2022/04/08 07:14:37;;;;;;;10.88;2.10;;;;;;;;;;5066067;28;20050;-69
2022/04/08 07:17:03;;;;;;;11.25;2.20;;;;;;;;;;5060697;28;20040;-70
2022/04/08 07:19:29;;;;;;;9.35;1.88;;;;;;;;;;5068091;28;20131;-69
2022/04/08 07:21:57;;;;;;;6.00;1.30;;;;;;;;;;5055140;28;20189;-70
2022/04/08 07:24:48;;;;;;;9.50;1.67;;;5.40;99.90;;;;;;5085058;22;21633;-71
2022/04/08 07:27:14;;;;;;;7.80;2.28;;;;;;;;;;5035419;28;20509;-69
2022/04/08 07:29:40;;;;;;;9.32;2.05;;;;;;;;;;5042648;28;20096;-69
2022/04/08 07:32:06;;;;;;;11.20;1.83;;;;;;;;;;5019998;28;20061;-69
2022/04/08 07:34:32;;;;;;;9.70;3.05;;;;;;;;;;5026553;28;20057;-70
2022/04/08 07:36:59;;;;;;;15.27;2.53;;;;;;;;;;5027312;28;20049;-70
2022/04/08 07:39:25;;;;;;;6.30;1.95;;;;;;;;;;5029452;28;20045;-70
2022/04/08 07:41:51;;;;;;;3.00;1.40;;;;;;;;;;5044322;28;20070;-70
2022/04/08 07:44:17;;;;;;;7.63;2.38;;;;;;;;;;5024538;28;20106;-70
2022/04/08 07:52:18;;;;;;;7.47;1.75;;;;;;;;;;5011908;28;20074;-69
2022/04/08 07:54:45;;;;;;;4.70;0.90;;;;;;;;;;4998614;28;20085;-69
2022/04/08 07:57:13;;;;;;;3.35;1.13;;;;;;;;;;4998490;28;20064;-69
2022/04/08 07:59:39;;;;;;;4.97;1.33;;;;;;;;;;4997306;28;20049;-68
2022/04/08 08:02:05;;;;;;;8.82;1.98;;;;;;;;;;4997631;28;20120;-67
2022/04/08 08:04:31;;;;;;;6.53;1.40;;;;;;;;;;4982103;28;20060;-67
2022/04/08 08:06:58;;;;;;;6.80;1.50;;;;;;;;;;4998256;28;20073;-68
2022/04/08 08:09:24;;;;;;;4.40;1.52;;;;;;;;;;4981837;28;20429;-67
2022/04/08 08:11:50;;;;;;;12.25;2.00;;;;;;;;;;4998427;28;20057;-68
2022/04/08 08:14:15;;;;;;;3.83;1.10;;;;;;;;;;5015606;28;20401;-68
2022/04/08 08:16:41;;;;;;;9.98;1.38;;;;;;;;;;4981921;28;20049;-68
2022/04/08 08:19:07;;;;;;;4.72;1.40;;;;;;;;;;4997987;28;20042;-68
2022/04/08 08:21:33;;;;;;;5.38;1.50;;;;;;;;;;4998316;28;20050;-69
2022/04/08 08:23:59;;;;;;;6.32;1.20;;;;;;;;;;5014673;28;20074;-68
2022/04/08 08:26:25;;;;;;;5.88;1.50;;;;;;;;;;4997684;28;20132;-68
2022/04/08 08:28:53;;;;;;;9.07;2.40;;;;;;;;;;4981217;28;20042;-68
2022/04/08 08:31:19;;;;;;;14.73;2.33;;;;;;;;;;5014977;28;20612;-68
2022/04/08 08:33:45;;;;;;;6.93;1.60;;;;;;;;;;5014315;28;20490;-68
2022/04/08 08:36:11;;;;;;;18.23;3.38;;;;;;;;;;4996651;28;20042;-68
2022/04/08 08:38:37;;;;;;;10.82;2.95;;;;;;;;;;5014797;28;20046;-68
2022/04/08 08:41:03;;;;;;;7.45;1.98;;;;;;;;;;5013960;28;20521;-68
2022/04/08 08:43:29;;;;;;;8.65;2.95;;;;;;;;;;4997589;28;20446;-68
2022/04/08 08:45:57;;;;;;;11.95;1.70;;;;;;;;;;5014021;28;20050;-68
2022/04/08 08:48:23;;;;;;;17.27;2.88;;;;;;;;;;4996963;28;20398;-67
2022/04/08 08:50:54;;;;;;;11.13;2.15;;;;;;;;;;5004108;28;20429;-68
2022/04/08 08:53:21;;;;;;;5.47;1.40;;;;;;;;;;5014967;28;20038;-68
2022/04/08 08:55:48;;;;;;;10.90;2.03;;;;;;;;;;5014866;28;20088;-68
2022/04/08 08:58:15;;;;;;;11.05;2.45;;;;;;;;;;5014765;28;20049;-67
2022/04/08 09:00:41;;;;;;;11.00;2.30;;;;;;;;;;5015012;28;20479;-67
2022/04/08 09:03:09;;;;;;;8.18;1.70;;;;;;;;;;5012123;28;20044;-68
2022/04/08 09:05:42;;;;;;;6.82;1.45;;;;;;;;;;5012938;28;20057;-68
2022/04/08 09:08:08;;;;;;;11.40;1.85;;;;;;;;;;5013405;28;20486;-68
2022/04/08 09:10:39;;;;;;;7.47;1.45;;;;;;;;;;5013455;28;20495;-67
2022/04/08 09:13:07;;;;;;;8.52;2.38;;;;;;;;;;4996951;28;20050;-67
2022/04/08 09:15:37;;;;;;;13.05;2.13;;;;;;;;;;5002828;28;20061;-68
2022/04/08 09:18:10;;;;;;;12.82;1.75;;;;;;;;;;5012692;28;20054;-67
2022/04/08 09:20:47;;;;;;;9.43;2.08;;;;;;;;;;5002673;28;20138;-67
2022/04/08 09:23:14;;;;;;;9.38;1.90;;;;;;;;;;5016503;28;20048;-68
2022/04/08 09:25:40;;;;;;;9.30;2.40;;;;;;;;;;5014131;28;20041;-67
2022/04/08 09:28:07;;;;;;;10.57;1.83;;;;;;;;;;5012671;28;20403;-68
2022/04/08 09:30:33;;;;;;;4.95;1.90;;;;;;;;;;5010676;28;20034;-67
2022/04/08 09:32:59;;;;;;;12.98;1.85;;;;;;;;;;5004691;28;20111;-66
2022/04/08 09:35:25;;;;;;;9.82;2.25;;;;;;;;;;5001273;28;20042;-66
2022/04/08 09:37:58;;;;;;;14.73;2.50;;;;;;;;;;5008977;28;20072;-67
2022/04/08 09:40:24;;;;;;;11.25;2.20;;;;;;;;;;4988586;28;20258;-67
2022/04/08 09:42:50;;;;;;;12.60;2.28;;;;;;;;;;5012878;28;20034;-66
2022/04/08 09:45:26;;;;;;;7.15;2.33;;;;;;;;;;5009432;28;20467;-67
2022/04/08 09:47:52;;;;;;;7.78;2.10;;;;;;;;;;5013170;28;20490;-67
2022/04/08 09:50:18;;;;;;;7.85;1.23;;;;;;;;;;5010910;28;20046;-67
2022/04/08 09:52:45;;;;;;;9.13;2.25;;;;;;;;;;5013386;28;20453;-66
2022/04/08 09:55:11;;;;;;;8.65;2.22;;;;;;;;;;5011588;28;20046;-65
2022/04/08 09:57:39;;;;;;;4.05;1.23;;;;;;;;;;5011802;28;20132;-64
2022/04/08 10:00:06;;;;;;;5.63;1.30;;;;;;;;;;5011575;28;20049;-65
2022/04/08 10:02:33;;;;;;;3.80;1.58;;;;;;;;;;5012320;28;20401;-65
2022/04/08 10:05:00;;;;;;;8.25;1.58;;;;;;;;;;5013180;28;20054;-65
2022/04/08 10:07:27;;;;;;;9.57;2.42;;;;;;;;;;5012479;28;20045;-66
2022/04/08 10:10:13;;;;;;;9.93;2.67;;;;;;;;;;4995052;28;20630;-66
2022/04/08 10:12:44;;;;;;;6.57;2.08;;;;;;;;;;5005211;28;20148;-67
2022/04/08 10:15:14;;;;;;;6.68;2.30;;;;;;;;;;5012253;28;20111;-67
2022/04/08 10:17:40;;;;;;;7.45;2.22;;;;;;;;;;4995809;28;20098;-67
2022/04/08 10:20:20;;;;;;;7.50;2.15;;;;;;;;;;5011592;28;20482;-67
2022/04/08 10:22:47;;;;;;;8.40;1.90;;;;;;;;;;5011849;28;20046;-67
2022/04/08 10:25:14;;;;;;;12.40;2.80;;;;;;;;;;5012115;28;20141;-67
2022/04/08 10:27:41;;;;;;;6.85;1.77;;;;;;;;;;5010063;28;20164;-67
2022/04/08 10:30:21;;;;;;;6.28;1.20;;;;;;;;;;5011014;28;20045;-68
2022/04/08 10:32:48;;;;;;;6.97;1.77;;;;;;;;;;5000942;28;20045;-68
2022/04/08 10:35:18;;;;;;;10.18;1.90;;;;;;;;;;5009743;28;20098;-67
2022/04/08 10:38:01;;;;;;;6.30;1.25;;;;;;;;;;5009750;28;20053;-68
2022/04/08 10:40:34;;;;;;;6.47;1.30;;;;;;;;;;4994269;28;20053;-67
2022/04/08 10:43:01;;;;;;;8.52;1.33;;;;;;;;;;5009129;28;20064;-68
2022/04/08 10:45:27;;;;;;;6.45;1.33;;;;;;;;;;5011136;28;20578;-68
2022/04/08 10:47:53;;;;;;;7.30;1.40;;;;;;;;;;5012700;28;20514;-68
2022/04/08 10:50:27;;;;;;;4.60;1.77;;;;;;;;;;5010382;28;20049;-67
2022/04/08 10:53:03;;;;;;;5.75;1.50;;;;;;;;;;5010683;28;20089;-68
2022/04/08 10:55:29;;;;;;;4.90;0.88;;;;;;;;;;5008289;28;20124;-68
2022/04/08 10:57:57;;;;;;;4.80;1.20;;;;;;;;;;5010038;28;20120;-67
2022/04/08 11:00:25;;;;;;;9.05;1.35;;;;;;;;;;4994262;28;20132;-67
2022/04/08 11:02:53;;;;;;;8.85;1.30;;;;;;;;;;5011488;28;20176;-67
2022/04/08 11:05:20;;;;;;;9.88;1.38;;;;;;;;;;5007837;28;20129;-67
2022/04/08 11:07:47;;;;;;;6.63;1.00;;;;;;;;;;5008691;28;20045;-67
2022/04/08 11:10:15;;;;;;;8.35;1.58;;;;;;;;;;4995196;28;20049;-67
2022/04/08 11:12:51;;;;;;;4.45;1.52;;;;;;;;;;5011201;28;20093;-68
2022/04/08 11:15:18;;;;;;;13.38;2.30;;;;;;;;;;4994563;28;20053;-68
2022/04/08 11:17:45;;;;;;;9.35;1.83;;;;;;;;;;5012118;28;20038;-68
2022/04/08 11:20:11;;;;;;;11.00;1.52;;;;;;;;;;4995344;28;20046;-68
2022/04/08 11:22:41;;;;;;;8.25;1.88;;;;;;;;;;5010901;28;20441;-68
2022/04/08 11:25:08;;;;;;;10.20;1.73;;;;;;;;;;5010329;28;20054;-68
2022/04/08 11:27:35;;;;;;;9.93;1.67;;;;;;;;;;5027398;28;20292;-68
2022/04/08 11:30:01;;;;;;;4.35;0.98;;;;;;;;;;5011374;28;20057;-68
2022/04/08 11:32:33;;;;;;;4.57;0.90;;;;;;;;;;4993709;28;20057;-68
2022/04/08 11:34:59;;;;;;;5.22;1.27;;;;;;;;;;5027558;28;20054;-68
2022/04/08 11:37:26;;;;;;;5.00;1.20;;;;;;;;;;5011230;28;20065;-68
2022/04/08 11:39:58;;;;;;;4.43;1.20;;;;;;;;;;5025644;28;20499;-68
2022/04/08 11:42:25;;;;;;;5.13;1.20;;;;;;;;;;5012588;28;20485;-68
2022/04/08 11:44:51;;;;;;;3.53;1.10;;;;;;;;;;5010691;28;20086;-68
2022/04/08 11:47:18;;;;;;;5.75;0.95;;;;;;;;;;5012244;28;20111;-68
2022/04/08 11:49:44;;;;;;;4.93;1.52;;;;;;;;;;5072030;22;20056;-67
2022/04/08 11:52:29;;;;;;;5.00;0.80;;;;;;;;;;5143375;22;20472;-69
2022/04/08 11:55:02;;;;;;;7.00;1.55;;;;;;;;;;5048214;22;20164;-68
2022/04/08 11:57:29;;;;;;;4.32;1.10;;;;;;;;;;5052184;28;20550;-68
2022/04/08 11:59:55;;;;;;;4.47;0.85;;;;;;;;;;5071791;28;20477;-68
2022/04/08 12:02:21;;;;;;;5.82;0.95;;;;;;;;;;5050830;28;20043;-68
2022/04/08 12:04:50;;;;;;;3.15;0.80;;;;;;;;;;5051058;28;20405;-68
2022/04/08 12:07:28;;;;;;;4.38;0.73;;;;;;;;;;5042979;28;20091;-68
2022/04/08 12:09:54;;;;;;;3.08;0.85;;;;;;;;;;5052464;28;20049;-68
2022/04/08 12:12:28;;;;;;;2.85;0.77;;;;;;;;;;5087053;22;20041;-67
2022/04/08 12:14:54;;;;;;;4.53;0.60;;;;;;;;;;5136027;22;20420;-68
2022/04/08 12:17:20;;;;;;;2.75;0.70;;;;;;;;;;5094975;28;20055;-68
2022/04/08 12:19:51;;;;;;;3.97;0.70;;;;;;;;;;5093950;28;20036;-68
2022/04/08 12:22:17;;;;;;;2.63;0.70;;;;;;;;;;5076357;28;20051;-69
2022/04/08 12:24:44;;;;;;;3.50;0.60;;;;;;;;;;5082716;28;20069;-68
2022/04/08 12:27:11;;;;;;;2.78;0.90;;;;;;;;;;5095425;28;20083;-68
2022/04/08 12:29:39;;;;;;;6.78;0.75;;;;;;;;;;5084111;28;20044;-67
2022/04/08 12:32:11;;;;;;;4.30;1.02;;;;;;;;;;5071638;28;20082;-67
2022/04/08 12:34:37;;;;;;;2.00;0.80;;;;;;;;;;5068240;28;20451;-67
2022/04/08 12:37:04;;;;;;;5.80;1.15;;;;;;;;;;5093426;28;20040;-67
2022/04/08 12:39:30;;;;;;;6.43;1.20;;;;;;;;;;5079628;28;20044;-68
2022/04/08 12:41:59;;;;;;;8.23;0.90;;;;;;;;;;5080299;28;20056;-67
2022/04/08 12:44:26;;;;;;;8.40;1.03;;;;;;;;;;5096517;28;20056;-67
2022/04/08 12:46:54;;;;;;;6.88;1.10;;;;;;;;;;5094244;28;20040;-67
2022/04/08 12:49:20;;;;;;;3.42;0.60;;;;;;;;;;5083131;28;20059;-67
2022/04/08 12:51:46;;;;;;;5.07;1.13;;;;;;;;;;5091147;28;20056;-67
2022/04/08 12:54:12;;;;;;;11.80;1.10;;;;;;;;;;5066834;28;20075;-67
2022/04/08 12:56:38;;;;;;;3.33;1.00;;;;;;;;;;5083937;28;20130;-67
2022/04/08 12:59:04;;;;;;;5.43;1.00;;;;;;;;;;5039840;28;20095;-67
2022/04/08 13:01:31;;;;;;;7.50;2.17;;;;;;;;;;5074134;28;20522;-67
2022/04/08 13:04:00;;;;;;;1.67;0.50;;;;;;;;;;5081853;28;20082;-68
2022/04/08 13:06:26;;;;;;;4.35;0.70;;;;;;;;;;5076388;28;20073;-67
2022/04/08 13:08:52;;;;;;;3.15;0.85;;;;;;;;;;5076467;28;20043;-67
2022/04/08 13:11:18;;;;;;;3.78;0.80;;;;;;;;;;5051576;28;20500;-67
2022/04/08 13:13:44;;;;;;;8.55;0.90;;;;;;;;;;5109093;28;20058;-68
2022/04/08 13:16:11;;;;;;;4.93;0.80;;;;;;;;;;5097039;28;20056;-67
2022/04/08 13:18:37;;;;;;;2.60;0.73;;;;;;;;;;5069782;28;20048;-67
2022/04/08 13:21:04;;;;;;;2.97;0.50;;;;;;;;;;5094332;28;20047;-68
2022/04/08 13:23:30;;;;;;;4.22;0.75;;;;;;;;;;5104106;28;20122;-67
2022/04/08 13:25:56;;;;;;;5.15;0.85;;;;;;;;;;5095335;28;20131;-68
2022/04/08 13:28:22;;;;;;;5.80;0.85;;;;;;;;;;5093464;28;20548;-67
2022/04/08 13:30:48;;;;;;;8.95;1.63;;;;;;;;;;5097999;28;20044;-67
2022/04/08 13:33:14;;;;;;;9.45;1.00;;;;;;;;;;5091150;28;20038;-68
2022/04/08 13:35:40;;;;;;;4.55;0.73;;;;;;;;;;5093535;28;20040;-68
2022/04/08 13:38:06;;;;;;;7.38;0.80;;;;;;;;;;5082176;28;20062;-67
2022/04/08 13:40:32;;;;;;;5.70;0.60;;;;;;;;;;5089410;28;20039;-67
2022/04/08 13:43:00;;;;;;;5.10;1.27;;;;;;;;;;5073400;28;20043;-67
2022/04/08 13:45:26;;;;;;;4.93;1.20;;;;;;;;;;5073786;28;20118;-67
2022/04/08 13:47:52;;;;;;;7.72;1.23;;;;;;;;;;5050597;28;20128;-68
2022/04/08 13:50:19;;;;;;;8.18;1.65;;;;;;;;;;5089115;28;20098;-67
2022/04/08 13:52:45;;;;;;;7.18;1.10;;;;;;;;;;5075477;28;20101;-68
2022/04/08 13:55:14;;;;;;;2.17;0.40;;;;;;;;;;5050657;28;20084;-67
2022/04/08 13:57:40;;;;;;;6.30;1.25;;;;;;;;;;5047149;28;20052;-68
2022/04/08 14:00:06;;;;;;;4.53;1.00;;;;;;;;;;5093092;28;20044;-68
2022/04/08 14:02:32;;;;;;;8.82;1.30;;;;;;;;;;5052338;28;20076;-68
2022/04/08 14:04:58;;;;;;;4.15;1.02;;;;;;;;;;5069878;28;20385;-67
2022/04/08 14:07:24;;;;;;;6.32;1.30;;;;;;;;;;5093083;28;20055;-68
2022/04/08 14:09:50;;;;;;;5.90;1.33;;;;;;;;;;5093098;28;20040;-67
2022/04/08 14:12:21;;;;;;;8.65;1.50;;;;;;;;;;5057853;28;20048;-68
2022/04/08 14:14:47;;;;;;;3.55;0.68;;;;;;;;;;5074983;28;20411;-67
2022/04/08 14:17:13;;;;;;;10.20;1.05;;;;;;;;;;5096235;28;20125;-67
2022/04/08 14:19:40;;;;;;;7.80;1.30;;;;;;;;;;5100128;28;20075;-68
2022/04/08 14:22:06;;;;;;;11.05;0.65;;;;;;;;;;5077789;28;20074;-67
2022/04/08 14:24:32;;;;;;;5.07;1.00;;;;;;;;;;5075239;28;20101;-68
2022/04/08 14:26:58;;;;;;;5.50;1.58;;;;;;;;;;5092911;28;20046;-68
2022/04/08 14:29:24;;;;;;;5.32;0.95;;;;;;;;;;5090292;28;20123;-67
2022/04/08 14:31:51;;;;;;;7.43;1.50;;;;;;;;;;5090268;28;20452;-68
2022/04/08 14:34:17;;;;;;;2.92;0.70;;;;;;;;;;5094401;28;20058;-68
2022/04/08 14:36:43;;;;;;;6.63;0.93;;;;;;;;;;5110006;28;20036;-68
2022/04/08 14:39:09;;;;;;;10.30;1.40;;;;;;;;;;5074991;28;20073;-68
2022/04/08 14:41:35;;;;;;;4.15;0.90;;;;;;;;;;5093327;28;20123;-68
2022/04/08 14:44:01;;;;;;;3.85;0.90;;;;;;;;;;5092544;28;20135;-68
2022/04/08 14:46:30;;;;;;;8.93;1.10;;;;;;;;;;5081737;28;20054;-67
2022/04/08 14:48:56;;;;;;;6.47;0.90;;;;;;;;;;5092332;28;20079;-68
2022/04/08 14:51:22;;;;;;;5.03;1.02;;;;;;;;;;5092298;28;20118;-68